Time;durP1;ratioP1;P1;durP2;ratioP2;P2;SDS_P1;SDS_P2;PMS_P1;PMS_P2;Temp;Humidity;BMP_temperature;BMP_pressure;BME280_temperature;BME280_humidity;BME280_pressure;Samples;Min_cycle;Max_cycle;Signal;HPM_P1;HPM_P2
2021/01/18 00:00:55;;;;;;;38.90;19.67;;;;;;;-2.05;89.95;101012.22;5103503;28;20089;-84
2021/01/18 00:03:20;;;;;;;35.45;19.88;;;;;;;-2.03;90.46;101015.69;5103370;28;20020;-84
2021/01/18 00:05:46;;;;;;;38.85;19.95;;;;;;;-2.13;91.27;101009.38;5103000;28;20083;-84
2021/01/18 00:08:11;;;;;;;40.88;21.08;;;;;;;-2.12;91.20;101011.97;5099212;28;20099;-84
2021/01/18 00:10:36;;;;;;;38.70;21.80;;;;;;;-2.15;91.19;101005.91;5099129;28;20024;-84
2021/01/18 00:13:02;;;;;;;39.08;20.65;;;;;;;-2.07;91.36;101004.53;5097060;28;20028;-84
2021/01/18 00:15:27;;;;;;;40.35;22.63;;;;;;;-2.09;91.62;101001.06;5098544;28;20186;-84
2021/01/18 00:17:53;;;;;;;39.67;21.35;;;;;;;-2.12;91.78;100999.28;5097882;28;20388;-84
2021/01/18 00:20:20;;;;;;;38.50;20.80;;;;;;;-2.08;92.13;101006.19;5098294;28;20031;-84
2021/01/18 00:22:46;;;;;;;43.33;22.63;;;;;;;-2.06;91.90;101005.38;5099032;28;20126;-84
2021/01/18 00:25:21;;;;;;;42.97;21.02;;;;;;;-2.03;92.52;101001.31;5098298;28;20114;-84
2021/01/18 00:27:46;;;;;;;40.72;20.98;;;;;;;-2.00;92.10;101000.53;5097123;28;20510;-84
2021/01/18 00:30:13;;;;;;;40.38;20.73;;;;;;;-1.99;92.58;101002.31;5097849;28;20107;-84
2021/01/18 00:32:40;;;;;;;41.45;21.95;;;;;;;-1.96;92.33;100997.34;5096364;28;20115;-84
2021/01/18 00:35:09;;;;;;;38.83;20.77;;;;;;;-1.93;92.37;100993.25;5098701;28;20408;-84
2021/01/18 00:37:42;;;;;;;39.20;20.77;;;;;;;-1.88;92.42;100991.75;5093229;28;20031;-84
2021/01/18 00:40:08;;;;;;;34.42;19.23;;;;;;;-1.86;92.63;100994.34;5092907;28;20111;-84
2021/01/18 00:42:34;;;;;;;38.85;21.05;;;;;;;-1.89;92.59;100992.53;5092826;28;20035;-84
2021/01/18 00:44:59;;;;;;;33.60;19.73;;;;;;;-1.80;92.46;100993.72;5092776;28;20024;-84
2021/01/18 00:47:24;;;;;;;39.13;21.70;;;;;;;-1.77;92.49;100996.38;5094160;28;20512;-84
2021/01/18 00:49:49;;;;;;;39.17;20.73;;;;;;;-1.77;92.93;100994.69;5093123;28;20028;-84
2021/01/18 00:52:15;;;;;;;41.03;22.20;;;;;;;-1.83;92.67;100994.47;5093976;28;20039;-84
2021/01/18 00:54:40;;;;;;;37.78;21.17;;;;;;;-1.83;92.72;100994.47;5094040;28;20023;-85
2021/01/18 00:57:05;;;;;;;41.17;22.83;;;;;;;-1.84;93.06;100992.75;5094372;28;20034;-84
2021/01/18 00:59:31;;;;;;;40.33;21.35;;;;;;;-1.88;92.91;100993.41;5092634;28;20040;-84
2021/01/18 01:01:56;;;;;;;36.70;20.52;;;;;;;-1.78;93.19;100998.06;5092499;28;20498;-84
2021/01/18 01:04:21;;;;;;;45.55;22.35;;;;;;;-1.80;93.24;100992.03;5094492;28;20020;-84
2021/01/18 01:06:46;;;;;;;37.75;22.02;;;;;;;-1.79;93.46;100998.84;5092837;28;20020;-84
2021/01/18 01:09:12;;;;;;;39.47;21.55;;;;;;;-1.80;93.58;100994.59;5094010;28;20028;-84
2021/01/18 01:11:43;;;;;;;38.42;21.17;;;;;;;-1.73;93.45;100993.13;5093787;28;20391;-84
2021/01/18 01:14:09;;;;;;;35.25;20.52;;;;;;;-1.74;93.85;100993.97;5119583;22;20063;-83
2021/01/18 01:16:34;;;;;;;38.50;20.65;;;;;;;-1.75;93.68;100988.00;5100111;28;20391;-82
2021/01/18 01:18:59;;;;;;;41.55;21.60;;;;;;;-1.70;93.37;100991.56;5102046;28;20016;-82
2021/01/18 01:21:25;;;;;;;35.47;19.38;;;;;;;-1.70;94.04;100981.41;5103443;28;20055;-82
2021/01/18 01:23:50;;;;;;;35.83;19.48;;;;;;;-1.63;94.16;100988.47;5103416;28;20027;-82
2021/01/18 01:26:15;;;;;;;40.75;20.45;;;;;;;-1.64;94.61;100978.22;5100961;28;20074;-83
2021/01/18 01:28:40;;;;;;;43.72;20.65;;;;;;;-1.64;94.41;100979.09;5099665;28;20024;-82
2021/01/18 01:31:06;;;;;;;44.38;21.25;;;;;;;-1.63;94.42;100992.69;5099144;28;20024;-82
2021/01/18 01:33:31;;;;;;;41.50;21.05;;;;;;;-1.60;94.71;100987.72;5099946;28;20051;-82
2021/01/18 01:35:56;;;;;;;46.50;21.45;;;;;;;-1.55;94.39;100982.81;5098999;28;20024;-82
2021/01/18 01:38:21;;;;;;;41.05;20.88;;;;;;;-1.53;94.98;100974.44;5097525;28;20027;-83
2021/01/18 01:40:47;;;;;;;40.95;20.48;;;;;;;-1.53;94.80;100974.44;5100945;28;20021;-83
2021/01/18 01:43:12;;;;;;;37.42;19.63;;;;;;;-1.47;95.39;100981.44;5102426;28;20028;-83
2021/01/18 01:45:37;;;;;;;40.42;18.83;;;;;;;-1.47;94.92;100973.78;5102382;28;20028;-83
2021/01/18 01:48:03;;;;;;;40.40;20.63;;;;;;;-1.41;94.97;100967.25;5102510;28;20019;-83
2021/01/18 01:50:32;;;;;;;42.35;18.58;;;;;;;-1.35;95.14;100973.38;5102527;28;20107;-83
2021/01/18 01:53:05;;;;;;;42.45;19.85;;;;;;;-1.34;94.50;100970.88;5103890;28;20161;-83
2021/01/18 01:55:32;;;;;;;37.95;19.73;;;;;;;-1.36;94.90;100964.00;5102002;28;20020;-83
2021/01/18 01:57:59;;;;;;;38.97;18.77;;;;;;;-1.34;94.93;100970.88;5101582;28;20020;-82
2021/01/18 02:00:36;;;;;;;38.33;19.80;;;;;;;-1.30;94.88;100962.53;5102923;28;20468;-83
2021/01/18 02:03:22;;;;;;;39.42;19.20;;;;;;;-1.26;95.04;100961.84;5102329;28;20031;-83
2021/01/18 02:05:49;;;;;;;40.35;19.48;;;;;;;-1.26;95.38;100966.06;5095222;28;20035;-83
2021/01/18 02:08:14;;;;;;;41.85;18.58;;;;;;;-1.25;95.06;100952.53;5101175;28;20043;-83
2021/01/18 02:10:42;;;;;;;37.88;19.33;;;;;;;-1.24;95.55;100959.34;5100449;28;20024;-83
2021/01/18 02:13:32;;;;;;;39.80;19.88;;;;;;;-1.26;95.58;100959.31;5102576;28;20046;-83
2021/01/18 02:16:07;;;;;;;34.97;17.58;;;;;;;-1.22;95.76;100966.22;5104602;28;20053;-82
2021/01/18 02:18:41;;;;;;;48.08;19.70;;;;;;;-1.23;95.75;100953.44;5102128;28;20024;-82
2021/01/18 02:21:43;;;;;;;43.63;20.17;;;;;;;-1.24;95.36;100950.03;5103627;28;20023;-82
2021/01/18 02:24:25;;;;;;;44.20;19.95;;;;;;;-1.18;95.94;100951.94;5101286;28;20066;-82
2021/01/18 02:27:12;;;;;;;43.08;17.67;;;;;;;-1.12;95.94;100951.28;5104419;28;20369;-82
2021/01/18 02:30:04;;;;;;;38.40;17.60;;;;;;;-1.09;95.99;100954.81;5103473;28;20024;-82
2021/01/18 02:33:25;;;;;;;41.83;17.50;;;;;;;-1.04;95.71;100957.53;5104077;28;20027;-82
2021/01/18 02:36:02;;;;;;;41.75;18.65;;;;;;;-1.00;96.09;100952.59;5078128;28;20039;-82
2021/01/18 02:38:55;;;;;;;36.55;17.35;;;;;;;-0.98;96.36;100948.41;5106256;28;20046;-82
2021/01/18 02:41:55;;;;;;;32.20;16.88;;;;;;;-0.95;96.00;100948.53;5104453;28;20475;-82
2021/01/18 02:44:24;;;;;;;42.38;18.13;;;;;;;-0.93;95.90;100951.97;5106045;28;20096;-82
2021/01/18 02:46:50;;;;;;;34.55;17.27;;;;;;;-0.93;96.32;100956.19;5107595;28;20024;-83
2021/01/18 02:49:17;;;;;;;36.22;17.00;;;;;;;-0.89;96.19;100940.25;5108177;28;20031;-83
2021/01/18 02:51:47;;;;;;;35.20;16.48;;;;;;;-0.86;95.89;100942.88;5106456;28;20020;-83
2021/01/18 02:54:13;;;;;;;36.22;16.77;;;;;;;-0.88;96.03;100947.06;5102725;28;20042;-83
2021/01/18 02:56:40;;;;;;;34.95;16.92;;;;;;;-0.86;95.70;100950.53;5103621;28;20475;-82
2021/01/18 02:59:10;;;;;;;39.20;17.50;;;;;;;-0.83;95.81;100948.09;5102348;28;20028;-82
2021/01/18 03:02:08;;;;;;;38.58;17.42;;;;;;;-0.82;95.99;100954.91;5102342;28;20020;-82
2021/01/18 03:05:05;;;;;;;28.85;15.10;;;;;;;-0.78;96.05;100954.19;5101518;28;20030;-83
2021/01/18 03:07:40;;;;;;;30.88;15.00;;;;;;;-0.77;95.98;100953.41;5106521;28;20115;-83
2021/01/18 03:10:27;;;;;;;30.40;15.85;;;;;;;-0.78;95.90;100958.41;5104037;28;20020;-83
2021/01/18 03:12:59;;;;;;;31.67;15.80;;;;;;;-0.78;95.88;100956.72;5081415;28;20101;-83
2021/01/18 03:15:27;;;;;;;35.10;16.20;;;;;;;-0.84;95.62;100953.97;5102707;28;20031;-83
2021/01/18 03:17:56;;;;;;;36.00;17.15;;;;;;;-0.87;96.27;100955.56;5102254;28;20057;-82
2021/01/18 03:20:24;;;;;;;44.00;16.40;;;;;;;-0.87;96.50;100953.88;5101354;28;20540;-82
2021/01/18 03:22:50;;;;;;;40.45;16.80;;;;;;;-0.91;96.41;100957.13;5101535;28;20032;-82
2021/01/18 03:25:15;;;;;;;38.58;16.40;;;;;;;-0.93;96.46;100953.66;5101531;28;20024;-82
2021/01/18 03:27:58;;;;;;;44.22;16.40;;;;;;;-0.96;96.45;100956.09;5101509;28;20066;-82
2021/01/18 03:30:24;;;;;;;49.40;17.73;;;;;;;-0.96;96.46;100945.91;5103357;28;20024;-82
2021/01/18 03:32:52;;;;;;;39.70;16.90;;;;;;;-0.96;96.92;100951.00;5102531;28;20023;-82
2021/01/18 03:35:18;;;;;;;41.70;15.48;;;;;;;-0.95;96.93;100947.66;5103566;28;20024;-82
2021/01/18 03:37:51;;;;;;;41.72;16.00;;;;;;;-0.91;96.87;100946.94;5100434;28;20027;-83
2021/01/18 03:40:16;;;;;;;49.15;15.55;;;;;;;-0.88;97.08;100946.19;5102203;28;20527;-82
2021/01/18 03:42:41;;;;;;;39.80;14.82;;;;;;;-0.86;97.12;100950.53;5104377;28;20074;-83
2021/01/18 03:45:07;;;;;;;46.22;16.90;;;;;;;-0.88;97.13;100952.16;5101941;28;20103;-83
2021/01/18 03:47:32;;;;;;;58.20;16.70;;;;;;;-0.88;96.75;100944.50;5101974;28;20028;-83
2021/01/18 03:49:58;;;;;;;41.20;15.55;;;;;;;-0.90;97.26;100956.31;5101776;28;20028;-83
2021/01/18 03:52:23;;;;;;;50.28;16.00;;;;;;;-0.90;97.32;100948.66;5099319;28;20038;-83
2021/01/18 03:54:48;;;;;;;39.17;14.07;;;;;;;-0.90;97.40;100943.59;5100361;28;20458;-83
2021/01/18 03:57:13;;;;;;;33.42;14.07;;;;;;;-0.89;97.27;100944.44;5098588;28;20030;-83
2021/01/18 03:59:39;;;;;;;28.83;12.52;;;;;;;-0.90;97.16;100933.41;5098142;28;20028;-83
2021/01/18 04:02:04;;;;;;;31.20;12.07;;;;;;;-0.86;97.22;100925.06;5098083;28;20016;-83
2021/01/18 04:04:29;;;;;;;25.92;11.50;;;;;;;-0.85;97.26;100928.47;5099286;28;20449;-83
2021/01/18 04:06:54;;;;;;;24.88;10.93;;;;;;;-0.86;97.64;100937.81;5096776;28;20543;-83
2021/01/18 04:09:20;;;;;;;29.08;11.50;;;;;;;-0.91;97.38;100929.13;5096106;28;20020;-83
2021/01/18 04:11:45;;;;;;;28.15;11.65;;;;;;;-0.90;97.33;100924.91;5096302;28;20028;-83
2021/01/18 04:14:10;;;;;;;28.58;11.98;;;;;;;-0.94;97.60;100922.25;5099228;28;20127;-83
2021/01/18 04:16:40;;;;;;;26.75;10.82;;;;;;;-0.95;97.32;100920.53;5098294;28;20043;-83
2021/01/18 04:19:05;;;;;;;33.92;12.52;;;;;;;-0.96;97.53;100923.00;5097977;28;20055;-83
2021/01/18 04:21:30;;;;;;;42.50;12.18;;;;;;;-0.92;97.44;100924.88;5097623;28;20060;-83
2021/01/18 04:23:56;;;;;;;36.67;12.75;;;;;;;-0.93;97.66;100930.75;5098012;28;20019;-83
2021/01/18 04:26:21;;;;;;;44.20;12.48;;;;;;;-0.92;97.23;100924.88;5097493;28;20476;-83
2021/01/18 04:28:46;;;;;;;43.15;12.25;;;;;;;-0.90;97.84;100922.34;5097584;28;20016;-83
2021/01/18 04:31:11;;;;;;;40.67;11.65;;;;;;;-0.89;97.44;100918.97;5098558;28;20028;-82
2021/01/18 04:33:37;;;;;;;45.60;13.15;;;;;;;-0.91;97.79;100916.41;5099154;28;20110;-83
2021/01/18 04:36:03;;;;;;;41.22;12.20;;;;;;;-0.89;97.60;100918.97;5098488;28;20057;-83
2021/01/18 04:38:28;;;;;;;33.85;11.43;;;;;;;-0.89;97.88;100912.22;5097569;28;20031;-83
2021/01/18 04:40:54;;;;;;;36.17;12.18;;;;;;;-0.86;97.70;100919.09;5097312;28;20024;-83
2021/01/18 04:43:19;;;;;;;40.08;12.52;;;;;;;-0.86;97.76;100919.97;5098132;28;20057;-83
2021/01/18 04:45:45;;;;;;;47.70;13.00;;;;;;;-0.85;98.06;100916.59;5097771;28;20517;-83
2021/01/18 04:48:12;;;;;;;38.00;11.70;;;;;;;-0.86;97.96;100916.53;5096393;28;20016;-83
2021/01/18 04:50:37;;;;;;;35.92;11.60;;;;;;;-0.81;97.57;100915.88;5097736;28;20031;-83
2021/01/18 04:53:17;;;;;;;27.70;11.00;;;;;;;-0.79;97.96;100921.91;5096778;28;20023;-82
2021/01/18 04:55:42;;;;;;;33.75;11.45;;;;;;;-0.81;97.36;100923.53;5096209;28;20020;-83
2021/01/18 04:58:10;;;;;;;36.83;10.67;;;;;;;-0.81;97.89;100928.63;5096554;28;20111;-83
2021/01/18 05:00:46;;;;;;;29.38;10.38;;;;;;;-0.77;97.71;100925.38;5096297;28;20263;-83
2021/01/18 05:03:14;;;;;;;34.15;9.05;;;;;;;-0.75;97.70;100918.63;5096339;28;20130;-83
2021/01/18 05:06:17;;;;;;;30.60;9.85;;;;;;;-0.76;97.73;100919.47;5096035;28;20047;-83
2021/01/18 05:09:10;;;;;;;26.38;10.02;;;;;;;-0.70;97.61;100926.44;5086912;28;20036;-83
2021/01/18 05:11:37;;;;;;;40.72;8.02;;;;;;;-0.65;97.62;100924.91;5096377;28;20028;-83
2021/01/18 05:14:03;;;;;;;38.00;9.57;;;;;;;-0.64;97.10;100915.59;5097447;28;20024;-83
2021/01/18 05:16:34;;;;;;;27.75;8.88;;;;;;;-0.61;97.79;100920.78;5095933;28;20032;-83
2021/01/18 05:19:08;;;;;;;30.90;8.27;;;;;;;-0.58;98.05;100918.34;5096697;28;20016;-83
2021/01/18 05:21:38;;;;;;;35.60;8.30;;;;;;;-0.53;97.66;100909.16;5098028;28;20027;-83
2021/01/18 05:24:04;;;;;;;26.77;10.45;;;;;;;-0.52;97.85;100913.44;5096947;28;20024;-83
2021/01/18 05:26:29;;;;;;;34.40;9.38;;;;;;;-0.53;97.57;100919.34;5096137;28;20499;-83
2021/01/18 05:28:56;;;;;;;23.83;9.07;;;;;;;-0.54;97.90;100921.03;5097996;28;20016;-83
2021/01/18 05:31:30;;;;;;;25.63;9.25;;;;;;;-0.52;98.07;100916.00;5098411;28;20016;-83
2021/01/18 05:33:59;;;;;;;25.83;9.52;;;;;;;-0.50;98.02;100916.88;5099353;28;20419;-83
2021/01/18 05:36:41;;;;;;;33.22;11.68;;;;;;;-0.53;97.85;100917.66;5097460;28;20496;-83
2021/01/18 05:39:21;;;;;;;28.15;8.93;;;;;;;-0.53;98.35;100912.56;5095839;28;20051;-83
2021/01/18 05:41:49;;;;;;;24.30;9.18;;;;;;;-0.46;98.03;100911.09;5096733;28;20103;-83
2021/01/18 05:44:14;;;;;;;30.65;10.27;;;;;;;-0.47;97.65;100904.25;5095511;28;20028;-83
2021/01/18 05:46:48;;;;;;;19.90;8.02;;;;;;;-0.40;97.85;100910.41;5097465;28;20105;-83
2021/01/18 05:49:16;;;;;;;20.08;8.05;;;;;;;-0.37;97.48;100901.19;5094027;28;20036;-83
2021/01/18 05:51:47;;;;;;;23.92;7.88;;;;;;;-0.37;98.06;100901.19;5094195;28;20377;-83
2021/01/18 05:54:12;;;;;;;26.15;7.53;;;;;;;-0.36;97.83;100907.16;5095106;28;20066;-84
2021/01/18 05:56:40;;;;;;;22.83;7.85;;;;;;;-0.37;98.42;100903.75;5094303;28;20028;-83
2021/01/18 05:59:22;;;;;;;26.90;7.88;;;;;;;-0.37;97.85;100911.41;5095778;28;20020;-83
2021/01/18 06:01:49;;;;;;;26.75;7.78;;;;;;;-0.39;97.95;100907.91;5096119;28;20016;-83
2021/01/18 06:04:18;;;;;;;32.60;8.38;;;;;;;-0.38;97.91;100912.19;5097571;28;20024;-83
2021/01/18 06:06:52;;;;;;;37.03;8.98;;;;;;;-0.38;97.82;100916.44;5095165;28;20030;-83
2021/01/18 06:09:17;;;;;;;29.73;9.35;;;;;;;-0.35;97.69;100919.94;5096160;28;20027;-83
2021/01/18 06:11:42;;;;;;;44.50;8.02;;;;;;;-0.33;97.79;100915.75;5094525;28;20024;-83
2021/01/18 06:14:07;;;;;;;53.00;9.60;;;;;;;-0.34;98.21;100916.59;5095318;28;20036;-83
2021/01/18 06:16:33;;;;;;;44.95;9.98;;;;;;;-0.31;98.49;100920.88;5095653;28;20364;-83
2021/01/18 06:19:08;;;;;;;66.88;9.57;;;;;;;-0.27;98.58;100925.28;5095639;28;20024;-83
2021/01/18 06:21:42;;;;;;;30.33;8.13;;;;;;;-0.22;98.43;100915.22;5096506;28;20025;-84
2021/01/18 06:24:24;;;;;;;29.98;8.25;;;;;;;-0.20;98.20;100929.75;5094554;28;20029;-83
2021/01/18 06:26:50;;;;;;;49.47;9.00;;;;;;;-0.18;98.39;100923.03;5096463;28;20055;-84
2021/01/18 06:29:36;;;;;;;66.35;13.45;;;;;;;-0.19;98.22;100923.81;5100335;28;20042;-83
2021/01/18 06:32:02;;;;;;;54.42;8.70;;;;;;;-0.18;98.12;100917.94;5100715;28;20046;-83
2021/01/18 06:34:28;;;;;;;69.38;11.30;;;;;;;-0.20;98.23;100928.88;5101251;28;20429;-83
2021/01/18 06:36:57;;;;;;;70.50;9.07;;;;;;;-0.18;98.11;100932.38;5099170;28;20394;-83
2021/01/18 06:39:27;;;;;;;44.70;9.02;;;;;;;-0.16;98.64;100935.81;5100119;28;20020;-83
2021/01/18 06:42:02;;;;;;;58.13;8.30;;;;;;;-0.17;98.70;100934.09;5100161;28;20038;-83
2021/01/18 06:44:40;;;;;;;65.45;8.75;;;;;;;-0.14;98.19;100935.03;5098035;28;20020;-83
2021/01/18 06:47:26;;;;;;;66.10;8.68;;;;;;;-0.10;98.37;100938.53;5099363;28;20024;-83
2021/01/18 06:49:54;;;;;;;50.05;8.07;;;;;;;-0.11;98.43;100945.34;5098851;28;20024;-84
2021/01/18 06:52:30;;;;;;;51.17;8.63;;;;;;;-0.09;98.69;100937.75;5100548;28;20031;-83
2021/01/18 06:55:05;;;;;;;43.00;8.00;;;;;;;-0.10;98.86;100938.53;5099929;28;20480;-83
2021/01/18 06:57:33;;;;;;;;;;;;;;;-0.07;98.71;100931.00;5098625;28;20122;-83
2021/01/18 07:00:04;;;;;;;61.58;7.18;;;;;;;-0.02;98.60;100934.56;5099803;28;19908;-83
2021/01/18 07:02:37;;;;;;;52.92;8.25;;;;;;;-0.01;98.93;100937.13;5098952;28;20047;-83
2021/01/18 07:05:10;;;;;;;52.40;7.68;;;;;;;-0.01;98.76;100936.28;5099772;28;20020;-83
2021/01/18 07:07:38;;;;;;;47.15;8.65;;;;;;;-0.03;98.84;100948.13;5098714;28;20043;-83
2021/01/18 07:10:10;;;;;;;60.65;8.20;;;;;;;0.02;99.14;100941.47;5096987;28;20540;-84
2021/01/18 07:12:36;;;;;;;50.03;8.65;;;;;;;0.01;98.95;100938.88;5100526;28;20126;-83
2021/01/18 07:15:05;;;;;;;65.57;8.80;;;;;;;0.03;98.65;100940.63;5097828;28;20089;-84
2021/01/18 07:17:43;;;;;;;72.95;8.23;;;;;;;0.05;98.72;100941.56;5096693;28;20016;-85
2021/01/18 07:20:29;;;;;;;76.40;9.50;;;;;;;0.07;99.24;100947.59;5098229;28;20128;-84
2021/01/18 07:23:07;;;;;;;52.55;8.70;;;;;;;0.11;98.88;100946.84;5099040;28;20040;-83
2021/01/18 07:25:43;;;;;;;54.90;7.97;;;;;;;0.12;99.11;100952.81;5096797;28;20540;-86
2021/01/18 07:28:13;;;;;;;55.17;8.50;;;;;;;0.14;98.76;100946.09;5095230;28;20404;-83
2021/01/18 07:30:39;;;;;;;40.35;8.57;;;;;;;0.15;98.81;100951.22;5098996;28;20024;-84
2021/01/18 07:33:17;;;;;;;29.85;6.85;;;;;;;0.18;98.46;100937.69;5102447;28;20054;-83
2021/01/18 07:35:45;;;;;;;25.58;7.15;;;;;;;0.18;98.55;100933.47;5101715;28;20055;-83
2021/01/18 07:38:23;;;;;;;29.55;6.55;;;;;;;0.19;98.79;100931.81;5102772;28;20020;-83
2021/01/18 07:41:07;;;;;;;30.73;7.90;;;;;;;0.19;98.85;100939.44;5102960;28;20026;-83
2021/01/18 07:43:36;;;;;;;43.75;6.40;;;;;;;0.21;98.61;100938.66;5101234;28;20028;-83
2021/01/18 07:46:28;;;;;;;41.85;7.53;;;;;;;0.21;98.92;100935.25;5103210;28;20055;-83
2021/01/18 07:49:16;;;;;;;26.23;7.70;;;;;;;0.23;98.75;100937.03;5102090;28;20015;-83
2021/01/18 07:51:41;;;;;;;43.72;8.52;;;;;;;0.26;98.58;100931.16;5091318;28;20033;-83
2021/01/18 07:54:33;;;;;;;23.48;7.60;;;;;;;0.29;99.12;100938.03;5100398;28;20082;-83
2021/01/18 07:57:28;;;;;;;44.53;8.43;;;;;;;0.30;98.87;100932.97;5098666;28;20028;-83
2021/01/18 08:00:18;;;;;;;45.47;8.82;;;;;;;0.34;98.25;100931.34;5099515;28;20097;-85
2021/01/18 08:02:45;;;;;;;58.15;10.68;;;;;;;0.39;98.57;100932.38;5100563;28;20032;-83
2021/01/18 08:05:23;;;;;;;60.85;8.93;;;;;;;0.41;98.68;100931.59;5099148;28;20020;-83
2021/01/18 08:08:10;;;;;;;43.65;8.57;;;;;;;0.41;98.61;100933.28;5097965;28;20069;-83
2021/01/18 08:10:59;;;;;;;38.60;9.25;;;;;;;0.51;98.66;100927.63;5099279;28;20028;-83
2021/01/18 08:13:33;;;;;;;51.15;10.48;;;;;;;0.52;98.71;100931.88;5098340;28;20529;-83
2021/01/18 08:16:16;;;;;;;46.60;10.85;;;;;;;0.54;98.56;100919.19;5101289;28;20028;-83
2021/01/18 08:18:49;;;;;;;37.47;8.80;;;;;;;0.61;98.39;100918.53;5101692;28;20024;-82
2021/01/18 08:21:32;;;;;;;30.83;9.45;;;;;;;0.63;98.89;100925.41;5100534;28;20031;-82
2021/01/18 08:23:58;;;;;;;40.30;11.90;;;;;;;0.65;98.24;100916.13;5101995;28;20028;-82
2021/01/18 08:26:24;;;;;;;45.63;13.30;;;;;;;0.67;98.10;100911.91;5104259;28;20035;-82
2021/01/18 08:28:49;;;;;;;37.58;12.90;;;;;;;0.71;97.86;100909.44;5100061;28;20035;-82
2021/01/18 08:31:14;;;;;;;36.13;11.68;;;;;;;0.70;98.38;100903.47;5101554;28;20027;-83
2021/01/18 08:33:40;;;;;;;34.08;8.52;;;;;;;0.73;97.96;100897.59;5101583;28;20372;-83
2021/01/18 08:36:05;;;;;;;47.50;14.07;;;;;;;0.74;97.94;100895.09;5100905;28;20020;-83
2021/01/18 08:38:31;;;;;;;32.30;12.45;;;;;;;0.75;97.75;100899.38;5098458;28;20036;-83
2021/01/18 08:40:59;;;;;;;38.95;12.23;;;;;;;0.78;98.11;100896.03;5098926;28;20020;-82
2021/01/18 08:43:25;;;;;;;38.03;12.98;;;;;;;0.78;97.58;100896.03;5098228;28;20042;-83
2021/01/18 08:45:55;;;;;;;42.63;13.68;;;;;;;0.77;98.33;100882.41;5099892;28;20020;-83
2021/01/18 08:48:27;;;;;;;38.28;13.13;;;;;;;0.81;98.04;100874.00;5101468;28;20384;-82
2021/01/18 08:50:53;;;;;;;44.90;15.38;;;;;;;0.87;97.78;100871.59;5099669;28;20070;-83
2021/01/18 08:53:34;;;;;;;41.15;14.18;;;;;;;0.90;98.04;100870.81;5099933;28;20020;-83
2021/01/18 08:56:02;;;;;;;48.30;15.52;;;;;;;0.97;97.81;100875.25;5097660;28;20122;-83
2021/01/18 08:58:32;;;;;;;38.55;14.35;;;;;;;1.02;97.61;100876.25;5102060;28;20063;-83
2021/01/18 09:00:59;;;;;;;47.90;15.90;;;;;;;1.03;97.60;100874.56;5100367;28;20027;-82
2021/01/18 09:03:24;;;;;;;44.17;15.90;;;;;;;1.07;97.50;100878.91;5098581;28;20047;-82
2021/01/18 09:05:57;;;;;;;46.42;14.82;;;;;;;1.09;97.11;100878.13;5104403;28;20024;-82
2021/01/18 09:08:24;;;;;;;40.75;13.80;;;;;;;1.14;97.32;100870.59;5103134;28;20031;-82
2021/01/18 09:11:06;;;;;;;36.90;14.18;;;;;;;1.14;97.12;100879.13;5103012;28;20074;-83
2021/01/18 09:13:34;;;;;;;35.30;13.50;;;;;;;1.18;97.33;100882.59;5101107;28;20519;-82
2021/01/18 09:16:04;;;;;;;41.63;14.43;;;;;;;1.23;97.22;100881.03;5102352;28;20020;-84
2021/01/18 09:18:29;;;;;;;40.08;14.68;;;;;;;1.29;96.79;100885.41;5102436;28;20024;-83
2021/01/18 09:20:56;;;;;;;35.53;14.52;;;;;;;1.34;96.63;100878.72;5103449;28;20474;-83
2021/01/18 09:23:22;;;;;;;46.58;14.75;;;;;;;1.32;96.77;100888.03;5102322;28;20031;-83
2021/01/18 09:25:56;;;;;;;38.78;14.82;;;;;;;1.33;96.50;100888.09;5100663;28;20028;-83
2021/01/18 09:28:22;;;;;;;;;;;;;;;1.30;96.66;100877.81;5102999;28;20150;-83
2021/01/18 09:30:47;;;;;;;37.00;12.40;;;;;;;1.30;96.67;100884.59;5101981;28;19935;-83
2021/01/18 09:33:13;;;;;;;36.33;14.63;;;;;;;1.33;96.66;100877.00;5101609;28;20087;-83
2021/01/18 09:35:41;;;;;;;39.38;13.45;;;;;;;1.34;96.69;100879.59;5100199;28;20087;-83
2021/01/18 09:38:08;;;;;;;38.67;14.93;;;;;;;1.37;96.36;100884.78;5102368;28;20055;-85
2021/01/18 09:40:36;;;;;;;38.45;14.68;;;;;;;1.40;96.83;100876.31;5103502;28;20020;-82
2021/01/18 09:43:02;;;;;;;34.97;13.07;;;;;;;1.40;96.37;100876.31;5102262;28;20056;-83
2021/01/18 09:45:27;;;;;;;34.25;14.93;;;;;;;1.43;96.67;100878.97;5101214;28;20047;-82
2021/01/18 09:47:54;;;;;;;40.25;14.13;;;;;;;1.42;96.52;100879.78;5099333;28;20028;-83
2021/01/18 09:50:21;;;;;;;41.05;15.35;;;;;;;1.45;96.49;100872.19;5101502;28;20027;-83
2021/01/18 09:52:49;;;;;;;26.08;11.30;;;;;;;1.39;96.55;100872.06;5098910;28;20024;-84
2021/01/18 09:55:17;;;;;;;29.45;14.55;;;;;;;1.38;96.60;100881.38;5094912;28;20054;-85
2021/01/18 09:57:45;;;;;;;37.35;13.57;;;;;;;1.37;96.36;100871.13;5096623;28;20031;-84
2021/01/18 10:00:12;;;;;;;31.48;12.70;;;;;;;1.37;96.84;100874.56;5096422;28;20089;-83
2021/01/18 10:02:45;;;;;;;29.42;12.77;;;;;;;1.38;96.53;100875.41;5098864;28;20066;-82
2021/01/18 10:05:20;;;;;;;21.63;10.13;;;;;;;1.39;96.34;100872.06;5103350;28;20028;-82
2021/01/18 10:07:48;;;;;;;23.05;10.88;;;;;;;1.41;96.26;100872.94;5102283;28;20024;-83
2021/01/18 10:10:13;;;;;;;25.23;9.48;;;;;;;1.41;96.26;100869.53;5101285;28;20494;-82
2021/01/18 10:12:43;;;;;;;23.40;9.65;;;;;;;1.43;96.02;100861.06;5098294;28;20032;-83
2021/01/18 10:15:09;;;;;;;19.23;9.90;;;;;;;1.46;96.15;100855.16;5099279;28;20423;-83
2021/01/18 10:17:34;;;;;;;17.38;8.70;;;;;;;1.50;95.78;100855.25;5102421;28;20028;-82
2021/01/18 10:20:07;;;;;;;19.38;7.80;;;;;;;1.53;95.57;100842.56;5099136;28;20020;-83
2021/01/18 10:22:36;;;;;;;16.05;8.05;;;;;;;1.55;96.24;100833.25;5101420;28;20027;-83
2021/01/18 10:25:08;;;;;;;16.58;7.03;;;;;;;1.57;95.93;100833.25;5100012;28;20031;-83
2021/01/18 10:27:34;;;;;;;15.05;7.50;;;;;;;1.57;95.95;100830.69;5099996;28;20111;-83
2021/01/18 10:30:09;;;;;;;22.65;7.93;;;;;;;1.57;95.72;100825.59;5101267;28;20510;-83
2021/01/18 10:32:43;;;;;;;14.55;7.22;;;;;;;1.59;95.44;100819.69;5100163;28;20410;-82
2021/01/18 10:35:35;;;;;;;16.52;7.53;;;;;;;1.58;95.96;100820.53;5099434;28;20031;-82
2021/01/18 10:38:12;;;;;;;20.00;8.15;;;;;;;1.61;95.66;100817.19;5100830;28;20027;-82
2021/01/18 10:40:38;;;;;;;14.93;7.45;;;;;;;1.65;95.86;100802.78;5099265;28;20372;-82
2021/01/18 10:43:05;;;;;;;13.18;6.05;;;;;;;1.65;95.71;100802.78;5099753;28;20020;-82
2021/01/18 10:45:31;;;;;;;13.82;7.15;;;;;;;1.61;96.12;100799.28;5099691;28;20020;-83
2021/01/18 10:47:59;;;;;;;22.50;9.68;;;;;;;1.67;95.59;100796.00;5101096;28;20031;-82
2021/01/18 10:50:31;;;;;;;17.60;8.55;;;;;;;1.67;95.76;100785.78;5104375;28;20026;-82
2021/01/18 10:53:06;;;;;;;16.70;7.32;;;;;;;1.68;95.60;100783.25;5103807;28;20031;-82
2021/01/18 10:55:32;;;;;;;13.77;7.68;;;;;;;1.74;95.36;100783.38;5101300;28;20035;-83
2021/01/18 10:57:58;;;;;;;22.90;8.43;;;;;;;1.87;95.33;100763.16;5100184;28;20028;-82
2021/01/18 11:00:27;;;;;;;19.77;8.02;;;;;;;1.92;95.45;100762.44;5101607;28;20016;-83
2021/01/18 11:03:03;;;;;;;18.13;7.70;;;;;;;1.90;94.86;100764.09;5100418;28;20031;-83
2021/01/18 11:05:37;;;;;;;24.80;8.32;;;;;;;1.95;95.17;100759.09;5103085;28;20023;-83
2021/01/18 11:08:05;;;;;;;20.52;7.82;;;;;;;1.90;95.58;100753.84;5100992;28;20016;-83
2021/01/18 11:10:32;;;;;;;19.98;8.00;;;;;;;1.94;94.87;100752.22;5100787;28;20031;-83
2021/01/18 11:13:04;;;;;;;24.25;9.02;;;;;;;2.00;95.25;100748.13;5101713;28;20099;-83
2021/01/18 11:15:48;;;;;;;17.83;6.70;;;;;;;1.95;95.53;100746.28;5100829;28;20051;-83
2021/01/18 11:18:19;;;;;;;22.90;8.90;;;;;;;1.97;95.60;100749.72;5099009;28;20059;-83
2021/01/18 11:20:51;;;;;;;32.35;10.40;;;;;;;1.99;95.95;100743.81;5100168;28;20023;-83
2021/01/18 11:23:16;;;;;;;17.05;6.72;;;;;;;2.00;95.76;100735.31;5099712;28;20020;-83
2021/01/18 11:25:41;;;;;;;29.45;10.48;;;;;;;2.00;95.61;100737.88;5099440;28;20035;-83
2021/01/18 11:28:15;;;;;;;25.58;10.52;;;;;;;2.02;95.77;100732.78;5100059;28;20392;-84
2021/01/18 11:30:42;;;;;;;20.73;9.68;;;;;;;2.02;96.17;100733.63;5101599;28;20511;-83
2021/01/18 11:33:09;;;;;;;23.50;10.43;;;;;;;2.02;96.19;100728.53;5100254;28;20510;-83